createdAt,value
2018-03-08T00:02:07.619Z,17.70
2018-03-08T00:04:35.443Z,17.70
2018-03-08T00:07:03.230Z,17.60
2018-03-08T00:09:31.921Z,17.70
2018-03-08T00:12:00.480Z,17.60
2018-03-08T00:14:28.217Z,17.50
2018-03-08T00:16:56.050Z,17.50
2018-03-08T00:19:23.831Z,17.50
2018-03-08T00:21:51.619Z,17.50
2018-03-08T00:24:19.370Z,17.50
2018-03-08T00:26:47.123Z,17.40
2018-03-08T00:29:14.911Z,17.30
2018-03-08T00:31:42.724Z,17.40
2018-03-08T00:34:10.507Z,17.30
2018-03-08T00:36:39.025Z,17.20
2018-03-08T00:39:06.775Z,17.20
2018-03-08T00:41:34.552Z,17.20
2018-03-08T00:44:02.285Z,17.20
2018-03-08T00:46:30.084Z,17.10
2018-03-08T00:48:57.846Z,17.20
2018-03-08T00:51:25.626Z,17.10
2018-03-08T00:53:53.362Z,17.20
2018-03-08T00:56:21.108Z,17.20
2018-03-08T00:58:48.826Z,17.20
2018-03-08T01:01:16.554Z,17.40
2018-03-08T01:03:45.054Z,16.90
2018-03-08T01:06:12.820Z,16.90
2018-03-08T01:08:40.700Z,16.70
2018-03-08T01:11:08.506Z,16.70
2018-03-08T01:13:36.282Z,16.60
2018-03-08T01:16:04.177Z,16.60
2018-03-08T01:18:32.676Z,16.70
2018-03-08T01:21:00.415Z,16.60
2018-03-08T01:23:28.307Z,16.50
2018-03-08T01:25:56.858Z,16.40
2018-03-08T01:28:24.613Z,16.30
2018-03-08T01:30:52.390Z,16.60
2018-03-08T01:33:20.120Z,16.70
2018-03-08T01:35:47.939Z,16.80
2018-03-08T01:38:15.676Z,16.80
2018-03-08T01:40:44.220Z,16.70
2018-03-08T01:43:12.060Z,16.70
2018-03-08T01:45:39.843Z,16.70
2018-03-08T01:48:07.599Z,16.80
2018-03-08T01:50:35.444Z,16.80
2018-03-08T01:53:03.225Z,16.80
2018-03-08T01:55:31.016Z,16.80
2018-03-08T01:57:58.758Z,16.80
2018-03-08T02:00:26.547Z,16.90
2018-03-08T02:02:54.269Z,16.70
2018-03-08T02:05:22.913Z,16.60
2018-03-08T02:07:50.653Z,16.50
2018-03-08T02:10:18.471Z,16.70
2018-03-08T02:12:47.293Z,16.60
2018-03-08T02:15:15.027Z,16.70
2018-03-08T02:17:42.801Z,16.40
2018-03-08T02:20:10.515Z,16.30
2018-03-08T02:22:38.236Z,16.30
2018-03-08T02:25:06.033Z,16.40
2018-03-08T02:27:33.825Z,16.40
2018-03-08T02:30:01.621Z,16.20
2018-03-08T02:32:29.493Z,16.40
2018-03-08T02:34:57.269Z,16.40
2018-03-08T02:37:24.991Z,16.40
2018-03-08T02:39:53.540Z,16.50
2018-03-08T02:42:21.323Z,16.40
2018-03-08T02:44:49.122Z,16.50
2018-03-08T02:47:16.943Z,16.50
2018-03-08T02:49:44.681Z,16.50
2018-03-08T02:52:12.463Z,16.50
2018-03-08T02:54:40.296Z,16.50
2018-03-08T02:57:08.031Z,16.50
2018-03-08T02:59:36.559Z,16.50
2018-03-08T03:02:04.336Z,16.40
2018-03-08T03:04:32.120Z,16.40
2018-03-08T03:06:59.895Z,16.50
2018-03-08T03:09:27.683Z,16.50
2018-03-08T03:11:55.405Z,16.50
2018-03-08T03:14:23.313Z,16.50
2018-03-08T03:16:51.065Z,16.50
2018-03-08T03:19:18.849Z,16.40
2018-03-08T03:21:46.717Z,16.40
2018-03-08T03:24:14.508Z,16.40
2018-03-08T03:26:42.291Z,16.40
2018-03-08T03:29:10.173Z,16.40
2018-03-08T03:31:37.966Z,16.30
2018-03-08T03:34:05.763Z,16.30
2018-03-08T03:36:34.259Z,16.30
2018-03-08T03:39:02.040Z,16.30
2018-03-08T03:41:29.764Z,16.40
2018-03-08T03:43:57.582Z,16.40
2018-03-08T03:46:25.318Z,16.40
2018-03-08T03:48:53.102Z,16.30
2018-03-08T03:51:20.850Z,16.30
2018-03-08T03:53:48.622Z,16.30
2018-03-08T03:56:16.358Z,16.30
2018-03-08T03:58:44.180Z,16.30
2018-03-08T04:01:11.969Z,16.20
2018-03-08T04:03:39.706Z,16.20
2018-03-08T04:06:07.477Z,16.20
2018-03-08T04:08:35.260Z,16.10
2018-03-08T04:11:03.023Z,16.10
2018-03-08T04:13:30.894Z,16.00
2018-03-08T04:15:58.665Z,16.10
2018-03-08T04:18:26.392Z,16.10
2018-03-08T04:20:54.136Z,16.00
2018-03-08T04:23:21.870Z,16.00
2018-03-08T04:25:49.650Z,16.00
2018-03-08T04:28:17.510Z,16.00
2018-03-08T04:30:45.239Z,16.00
2018-03-08T04:33:13.011Z,16.00
2018-03-08T04:35:40.854Z,16.00
2018-03-08T04:38:09.394Z,16.00
2018-03-08T04:40:37.127Z,15.90
2018-03-08T04:43:05.032Z,15.90
2018-03-08T04:45:32.775Z,15.90
2018-03-08T04:48:00.518Z,15.90
2018-03-08T04:50:28.253Z,15.90
2018-03-08T04:52:56.077Z,15.90
2018-03-08T04:55:23.854Z,15.90
2018-03-08T04:57:51.633Z,15.90
2018-03-08T05:00:19.360Z,15.90
2018-03-08T05:02:47.148Z,15.90
2018-03-08T05:05:14.945Z,15.90
2018-03-08T05:07:42.735Z,15.90
2018-03-08T05:10:11.284Z,16.10
2018-03-08T05:12:39.061Z,16.00
2018-03-08T05:15:06.790Z,16.10
2018-03-08T05:17:34.525Z,16.10
2018-03-08T05:20:02.298Z,16.10
2018-03-08T05:22:30.103Z,16.20
2018-03-08T05:24:57.894Z,16.20
2018-03-08T05:27:25.706Z,16.20
2018-03-08T05:29:53.490Z,16.30
2018-03-08T05:32:21.295Z,16.30
2018-03-08T05:34:49.101Z,16.30
2018-03-08T05:37:16.881Z,16.30
2018-03-08T05:39:44.619Z,16.40
2018-03-08T05:42:12.479Z,16.40
2018-03-08T05:44:40.211Z,16.50
2018-03-08T05:47:07.993Z,16.50
2018-03-08T05:49:35.724Z,16.50
2018-03-08T05:52:03.489Z,16.60
2018-03-08T05:54:31.215Z,16.60
2018-03-08T05:56:59.777Z,16.70
2018-03-08T05:59:27.505Z,16.60
2018-03-08T06:01:55.308Z,16.70
2018-03-08T06:04:23.110Z,16.70
2018-03-08T06:06:51.251Z,16.80
2018-03-08T06:09:19.068Z,16.90
2018-03-08T06:11:46.871Z,16.90
2018-03-08T06:14:14.707Z,16.90
2018-03-08T06:16:42.517Z,16.90
2018-03-08T06:19:10.255Z,16.90
2018-03-08T06:21:38.068Z,17.00
2018-03-08T06:24:05.799Z,17.00
2018-03-08T06:26:33.554Z,17.10
2018-03-08T06:29:01.298Z,17.00
2018-03-08T06:31:29.086Z,17.00
2018-03-08T06:33:56.836Z,17.00
2018-03-08T06:36:24.559Z,16.90
2018-03-08T06:38:52.284Z,17.00
2018-03-08T06:41:20.100Z,17.00
2018-03-08T06:43:47.846Z,17.00
2018-03-08T06:46:15.598Z,17.00
2018-03-08T06:48:43.491Z,17.00
2018-03-08T06:51:11.241Z,16.90
2018-03-08T06:53:38.954Z,17.00
2018-03-08T06:56:06.767Z,17.00
2018-03-08T06:58:34.490Z,17.00
2018-03-08T07:01:02.275Z,17.00
2018-03-08T07:03:30.056Z,17.10
2018-03-08T07:05:58.227Z,17.10
2018-03-08T07:08:26.067Z,17.10
2018-03-08T07:10:53.922Z,17.10
2018-03-08T07:13:21.710Z,17.20
2018-03-08T07:15:51.306Z,17.10
2018-03-08T07:18:19.153Z,17.10
2018-03-08T07:20:48.272Z,17.10
2018-03-08T07:23:16.092Z,17.20
2018-03-08T07:25:43.859Z,17.20
2018-03-08T07:28:11.881Z,17.30
2018-03-08T07:30:39.739Z,17.40
2018-03-08T07:33:07.560Z,17.40
2018-03-08T07:35:35.439Z,17.50
2018-03-08T07:38:03.426Z,17.60
2018-03-08T07:40:31.228Z,17.60
2018-03-08T07:42:59.861Z,17.60
2018-03-08T07:45:27.595Z,17.50
2018-03-08T07:47:55.415Z,17.50
2018-03-08T07:50:23.324Z,17.40
2018-03-08T07:52:51.170Z,17.40
2018-03-08T07:55:19.023Z,17.50
2018-03-08T07:57:46.869Z,17.50
2018-03-08T08:00:14.688Z,17.50
2018-03-08T08:02:42.480Z,17.40
2018-03-08T08:05:22.236Z,17.60
2018-03-08T08:08:02.107Z,17.40
2018-03-08T08:10:31.917Z,17.20
2018-03-08T08:12:59.867Z,16.90
2018-03-08T08:15:29.412Z,16.60
2018-03-08T08:17:57.161Z,16.40
2018-03-08T08:20:24.946Z,16.70
2018-03-08T08:22:52.789Z,16.40
2018-03-08T08:25:20.520Z,16.40
2018-03-08T08:27:48.327Z,16.50
2018-03-08T08:30:16.348Z,16.20
2018-03-08T08:32:44.445Z,16.10
2018-03-08T08:35:12.216Z,16.30
2018-03-08T08:37:40.907Z,16.70
2018-03-08T08:40:08.672Z,16.70
2018-03-08T08:42:36.494Z,16.90
2018-03-08T08:45:04.418Z,17.00
2018-03-08T08:47:32.406Z,17.00
2018-03-08T08:50:00.146Z,17.20
2018-03-08T08:52:27.879Z,17.20
2018-03-08T08:54:55.604Z,17.40
2018-03-08T08:57:23.368Z,17.30
2018-03-08T08:59:51.335Z,17.40
2018-03-08T09:02:19.838Z,17.50
2018-03-08T09:04:47.764Z,17.30
2018-03-08T09:07:16.320Z,17.60
2018-03-08T09:09:44.569Z,17.60
2018-03-08T09:12:12.349Z,17.70
2018-03-08T09:14:40.082Z,17.70
2018-03-08T09:17:08.444Z,17.80
2018-03-08T09:19:36.290Z,18.00
2018-03-08T09:22:04.075Z,18.00
2018-03-08T09:24:31.850Z,17.90
2018-03-08T09:26:59.872Z,17.90
2018-03-08T09:29:28.530Z,17.80
2018-03-08T09:31:56.360Z,17.70
2018-03-08T09:34:24.282Z,17.70
2018-03-08T09:36:52.790Z,17.80
2018-03-08T09:39:20.647Z,18.10
2018-03-08T09:41:48.371Z,18.10
2018-03-08T09:44:16.106Z,17.90
2018-03-08T09:46:43.872Z,17.80
2018-03-08T09:49:11.681Z,17.80
2018-03-08T09:51:39.402Z,17.80
2018-03-08T09:54:07.219Z,17.70
2018-03-08T09:56:35.015Z,17.60
2018-03-08T09:59:02.743Z,17.70
2018-03-08T10:01:30.521Z,17.70
2018-03-08T10:03:58.307Z,17.70
2018-03-08T10:06:26.130Z,17.60
2018-03-08T10:08:54.657Z,17.60
2018-03-08T10:11:22.433Z,17.50
2018-03-08T10:13:50.183Z,17.60
2018-03-08T10:16:18.033Z,17.60
2018-03-08T10:18:45.789Z,17.60
2018-03-08T10:21:13.585Z,17.60
2018-03-08T10:23:41.434Z,17.50
2018-03-08T10:26:09.208Z,17.30
2018-03-08T10:28:37.013Z,17.40
2018-03-08T10:31:04.829Z,17.40
2018-03-08T10:33:32.547Z,17.50
2018-03-08T10:36:00.287Z,17.50
2018-03-08T10:38:28.101Z,17.40
2018-03-08T10:40:55.835Z,17.40
2018-03-08T10:43:23.580Z,17.50
2018-03-08T10:45:51.480Z,17.60
2018-03-08T10:48:19.218Z,17.60
2018-03-08T10:50:46.954Z,17.80
2018-03-08T10:53:14.832Z,17.80
2018-03-08T10:55:42.612Z,17.80
2018-03-08T10:58:10.391Z,17.80
2018-03-08T11:00:43.959Z,17.90
2018-03-08T11:03:11.753Z,17.90
2018-03-08T11:05:45.238Z,17.90
2018-03-08T11:08:13.014Z,18.00
2018-03-08T11:10:40.875Z,18.20
2018-03-08T11:13:08.672Z,18.30
2018-03-08T11:15:36.463Z,18.40
2018-03-08T11:18:04.187Z,18.80
2018-03-08T11:20:31.941Z,19.10
2018-03-08T11:22:59.725Z,18.40
2018-03-08T11:25:27.515Z,18.70
2018-03-08T11:27:55.355Z,19.00
2018-03-08T11:30:23.241Z,19.00
2018-03-08T11:32:50.980Z,18.90
2018-03-08T11:35:18.734Z,18.90
2018-03-08T11:37:47.726Z,19.00
2018-03-08T11:40:14.319Z,19.00
2018-03-08T11:42:42.877Z,19.20
2018-03-08T11:45:10.637Z,19.10
2018-03-08T11:47:38.367Z,19.20
2018-03-08T11:50:06.181Z,19.30
2018-03-08T11:52:33.983Z,19.50
2018-03-08T11:55:01.811Z,18.50
2018-03-08T11:57:29.634Z,18.90
2018-03-08T11:59:57.427Z,19.00
2018-03-08T12:02:25.209Z,19.00
2018-03-08T12:04:53.003Z,19.30
2018-03-08T12:07:20.758Z,19.60
2018-03-08T12:09:48.544Z,19.60
2018-03-08T12:12:16.367Z,19.60
2018-03-08T12:14:44.872Z,19.90
2018-03-08T12:17:12.730Z,19.80
2018-03-08T12:19:40.456Z,19.90
2018-03-08T12:22:08.237Z,19.70
2018-03-08T12:24:36.017Z,20.00
2018-03-08T12:27:03.777Z,20.20
2018-03-08T12:29:31.558Z,20.30
2018-03-08T12:31:59.344Z,20.10
2018-03-08T12:34:27.127Z,19.90
2018-03-08T12:36:54.870Z,19.90
2018-03-08T12:39:22.629Z,20.00
2018-03-08T12:41:50.400Z,20.10
2018-03-08T12:44:18.280Z,20.10
2018-03-08T12:46:46.104Z,20.20
2018-03-08T12:49:13.903Z,20.20
2018-03-08T12:51:41.624Z,20.20
2018-03-08T12:54:09.422Z,20.20
2018-03-08T12:56:37.161Z,20.40
2018-03-08T12:59:05.671Z,20.70
2018-03-08T13:01:33.463Z,20.60
2018-03-08T13:04:01.258Z,20.60
2018-03-08T13:06:29.051Z,20.60
2018-03-08T13:08:56.983Z,20.70
2018-03-08T13:11:24.821Z,21.10
2018-03-08T13:13:52.629Z,21.20
2018-03-08T13:16:20.369Z,21.50
2018-03-08T13:18:48.162Z,21.50
2018-03-08T13:21:15.999Z,21.30
2018-03-08T13:23:43.801Z,21.10
2018-03-08T13:26:11.585Z,21.10
2018-03-08T13:28:39.432Z,21.20
2018-03-08T13:31:07.205Z,21.10
2018-03-08T13:33:35.029Z,21.20
2018-03-08T13:36:02.865Z,21.40
2018-03-08T13:38:30.664Z,21.40
2018-03-08T13:40:58.452Z,21.20
2018-03-08T13:46:00.300Z,21.10
2018-03-08T13:48:28.117Z,21.10
2018-03-08T13:50:55.948Z,21.10
2018-03-08T13:53:23.693Z,21.20
2018-03-08T13:55:52.276Z,21.00
2018-03-08T13:58:20.074Z,20.90
2018-03-08T14:00:47.969Z,20.90
2018-03-08T14:03:15.827Z,20.80
2018-03-08T14:05:43.563Z,20.70
2018-03-08T14:08:11.337Z,20.60
2018-03-08T14:10:39.104Z,20.60
2018-03-08T14:13:06.819Z,20.70
2018-03-08T14:15:34.637Z,20.70
2018-03-08T14:18:02.459Z,21.00
2018-03-08T14:20:30.201Z,21.20
2018-03-08T14:22:57.986Z,21.50
2018-03-08T14:25:25.765Z,21.60
2018-03-08T14:27:54.110Z,21.80
2018-03-08T14:30:21.832Z,21.90
2018-03-08T14:32:49.620Z,21.60
2018-03-08T14:35:17.366Z,21.30
2018-03-08T14:37:46.160Z,21.10
2018-03-08T14:40:13.976Z,21.00
2018-03-08T14:42:41.752Z,20.70
2018-03-08T14:45:09.534Z,20.70
2018-03-08T14:47:38.500Z,20.70
2018-03-08T14:50:06.346Z,20.80
2018-03-08T14:52:34.068Z,20.80
2018-03-08T14:55:01.933Z,20.70
2018-03-08T14:57:29.742Z,20.90
2018-03-08T14:59:57.473Z,21.10
2018-03-08T15:02:25.257Z,21.20
2018-03-08T15:04:53.036Z,21.40
2018-03-08T15:07:21.577Z,21.50
2018-03-08T15:09:49.318Z,21.50
2018-03-08T15:12:17.081Z,21.50
2018-03-08T15:14:44.803Z,21.60
2018-03-08T15:17:12.523Z,21.60
2018-03-08T15:19:40.277Z,21.70
2018-03-08T15:22:08.101Z,21.70
2018-03-08T15:24:35.856Z,21.60
2018-03-08T15:27:03.623Z,21.60
2018-03-08T15:29:32.992Z,21.70
2018-03-08T15:32:00.853Z,21.70
2018-03-08T15:34:28.701Z,21.70
2018-03-08T15:36:56.467Z,21.70
2018-03-08T15:39:24.245Z,21.60
2018-03-08T15:41:51.980Z,21.50
2018-03-08T15:44:19.741Z,21.50
2018-03-08T15:46:47.525Z,21.30
2018-03-08T15:49:15.323Z,21.30
2018-03-08T15:51:43.654Z,21.20
2018-03-08T15:54:11.442Z,21.00
2018-03-08T15:56:39.236Z,21.00
2018-03-08T15:59:07.002Z,20.80
2018-03-08T16:01:35.391Z,20.80
2018-03-08T16:04:03.278Z,20.70
2018-03-08T16:06:42.741Z,20.30
2018-03-08T16:09:10.605Z,20.30
2018-03-08T16:11:38.378Z,20.20
2018-03-08T16:14:06.126Z,20.20
2018-03-08T16:16:33.903Z,20.30
2018-03-08T16:19:01.646Z,20.30
2018-03-08T16:21:40.155Z,20.10
2018-03-08T16:24:07.973Z,20.20
2018-03-08T16:26:35.702Z,20.30
2018-03-08T16:29:03.493Z,20.20
2018-03-08T16:31:31.443Z,20.20
2018-03-08T16:33:59.177Z,20.30
2018-03-08T16:36:26.920Z,20.40
2018-03-08T16:38:54.662Z,20.50
2018-03-08T16:41:22.420Z,20.40
2018-03-08T16:43:50.161Z,20.40
2018-03-08T16:46:17.962Z,20.40
2018-03-08T16:48:45.713Z,20.30
2018-03-08T16:51:13.588Z,20.40
2018-03-08T16:53:41.401Z,20.30
2018-03-08T16:56:09.198Z,20.50
2018-03-08T16:58:36.972Z,20.50
2018-03-08T17:01:04.755Z,20.50
2018-03-08T17:03:32.507Z,20.50
2018-03-08T17:06:00.245Z,20.60
2018-03-08T17:08:28.022Z,20.60
2018-03-08T17:10:55.800Z,20.60
2018-03-08T17:13:23.635Z,20.60
2018-03-08T17:15:51.374Z,20.60
2018-03-08T17:18:19.204Z,20.50
2018-03-08T17:20:47.011Z,20.60
2018-03-08T17:23:14.830Z,20.60
2018-03-08T17:25:42.561Z,20.50
2018-03-08T17:28:10.438Z,20.50
2018-03-08T17:30:38.188Z,20.50
2018-03-08T17:33:06.827Z,20.50
2018-03-08T17:35:34.569Z,20.40
2018-03-08T17:38:02.409Z,20.50
2018-03-08T17:40:31.013Z,20.40
2018-03-08T17:42:58.795Z,20.40
2018-03-08T17:45:26.572Z,20.40
2018-03-08T17:47:54.402Z,20.40
2018-03-08T17:50:23.069Z,20.40
2018-03-08T17:52:50.904Z,20.40
2018-03-08T17:55:18.643Z,20.50
2018-03-08T17:57:46.386Z,20.50
2018-03-08T18:00:14.878Z,20.40
2018-03-08T18:02:42.637Z,20.40
2018-03-08T18:05:11.296Z,20.40
2018-03-08T18:07:39.102Z,20.30
2018-03-08T18:10:07.500Z,20.40
2018-03-08T18:12:35.326Z,20.40
2018-03-08T18:15:03.273Z,20.30
2018-03-08T18:17:31.048Z,20.30
2018-03-08T18:19:58.847Z,20.30
2018-03-08T18:22:26.648Z,20.20
2018-03-08T18:24:54.566Z,20.20
2018-03-08T18:27:22.370Z,20.20
2018-03-08T18:29:50.265Z,20.30
2018-03-08T18:32:20.996Z,20.30
2018-03-08T18:34:49.257Z,20.30
2018-03-08T18:37:24.584Z,20.20
2018-03-08T18:39:54.499Z,20.30
2018-03-08T18:42:22.545Z,20.30
2018-03-08T18:44:50.361Z,20.30
2018-03-08T18:47:18.980Z,20.10
2018-03-08T18:49:47.215Z,20.20
2018-03-08T18:52:15.876Z,20.10
2018-03-08T18:54:43.718Z,20.00
2018-03-08T18:57:11.657Z,20.00
2018-03-08T18:59:39.384Z,20.10
2018-03-08T19:02:15.560Z,20.10
2018-03-08T19:04:44.328Z,20.20
2018-03-08T19:07:12.275Z,20.10
2018-03-08T19:09:40.070Z,20.10
2018-03-08T19:12:08.001Z,20.10
2018-03-08T19:14:35.870Z,20.10
2018-03-08T19:17:03.741Z,20.10
2018-03-08T19:19:31.466Z,20.00
2018-03-08T19:22:00.029Z,20.10
2018-03-08T19:24:27.803Z,20.00
2018-03-08T19:26:55.722Z,20.00
2018-03-08T19:29:26.812Z,20.10
2018-03-08T19:31:54.660Z,20.00
2018-03-08T19:34:23.986Z,20.10
2018-03-08T19:36:54.276Z,20.00
2018-03-08T19:39:23.583Z,20.00
2018-03-08T19:41:52.247Z,20.00
2018-03-08T19:44:22.360Z,19.90
2018-03-08T19:46:53.864Z,19.90
2018-03-08T19:49:23.162Z,20.00
2018-03-08T19:51:54.339Z,20.00
2018-03-08T19:54:22.202Z,20.00
2018-03-08T19:56:51.556Z,20.00
2018-03-08T19:59:20.176Z,20.00
2018-03-08T20:01:49.525Z,20.00
2018-03-08T20:04:17.550Z,20.00
2018-03-08T20:06:48.689Z,20.00
2018-03-08T20:09:18.125Z,20.00
2018-03-08T20:11:49.351Z,19.90
2018-03-08T20:14:18.744Z,19.90
2018-03-08T20:16:47.285Z,19.90
2018-03-08T20:19:16.330Z,19.90
2018-03-08T20:21:46.047Z,19.90
2018-03-08T20:24:14.128Z,19.90
2018-03-08T20:26:41.957Z,19.90
2018-03-08T20:29:11.229Z,19.90
2018-03-08T20:31:39.027Z,19.80
2018-03-08T20:34:07.574Z,19.70
2018-03-08T20:36:35.395Z,19.90
2018-03-08T20:39:03.226Z,19.80
2018-03-08T20:41:30.989Z,19.80
2018-03-08T20:43:59.594Z,19.90
2018-03-08T20:46:28.583Z,19.90
2018-03-08T20:48:56.321Z,19.90
2018-03-08T20:51:24.864Z,20.00
2018-03-08T20:53:52.607Z,19.90
2018-03-08T20:56:20.407Z,20.00
2018-03-08T20:58:49.447Z,20.00
2018-03-08T21:01:17.233Z,20.00
2018-03-08T21:03:44.942Z,20.00
2018-03-08T21:06:12.774Z,20.00
2018-03-08T21:08:40.508Z,19.90
2018-03-08T21:11:09.143Z,19.70
2018-03-08T21:13:36.933Z,19.60
2018-03-08T21:16:04.715Z,19.50
2018-03-08T21:18:32.672Z,19.30
2018-03-08T21:21:00.483Z,19.20
2018-03-08T21:23:28.268Z,19.20
2018-03-08T21:25:56.052Z,19.20
2018-03-08T21:28:24.023Z,19.20
2018-03-08T21:30:51.753Z,19.10
2018-03-08T21:33:20.298Z,19.00
2018-03-08T21:35:48.073Z,18.90
2018-03-08T21:38:15.778Z,18.90
2018-03-08T21:40:43.502Z,18.90
2018-03-08T21:43:11.229Z,18.70
2018-03-08T21:45:38.996Z,18.60
2018-03-08T21:48:06.775Z,18.50
2018-03-08T21:50:34.517Z,18.50
2018-03-08T21:53:02.316Z,18.50
2018-03-08T21:55:30.036Z,18.30
2018-03-08T21:57:58.537Z,18.40
2018-03-08T22:00:26.365Z,18.40
2018-03-08T22:02:54.146Z,18.40
2018-03-08T22:05:21.931Z,18.30
2018-03-08T22:07:49.658Z,18.20
2018-03-08T22:10:17.377Z,18.40
2018-03-08T22:12:45.182Z,18.30
2018-03-08T22:15:12.984Z,18.30
2018-03-08T22:17:40.714Z,18.40
2018-03-08T22:20:08.604Z,18.30
2018-03-08T22:22:37.159Z,18.10
2018-03-08T22:25:04.948Z,18.10
2018-03-08T22:27:32.691Z,18.10
2018-03-08T22:30:00.478Z,18.10
2018-03-08T22:32:28.300Z,18.00
2018-03-08T22:34:56.034Z,18.00
2018-03-08T22:37:23.827Z,18.00
2018-03-08T22:39:51.597Z,18.10
2018-03-08T22:42:19.391Z,18.10
2018-03-08T22:44:47.227Z,18.10
2018-03-08T22:47:14.967Z,18.20
2018-03-08T22:49:43.507Z,18.10
2018-03-08T22:52:11.257Z,18.10
2018-03-08T22:54:38.991Z,18.10
2018-03-08T22:57:06.821Z,18.10
2018-03-08T22:59:34.550Z,18.00
2018-03-08T23:02:10.811Z,18.00
2018-03-08T23:04:38.561Z,17.90
2018-03-08T23:07:06.420Z,17.90
2018-03-08T23:09:34.243Z,17.90
2018-03-08T23:12:01.988Z,17.90
2018-03-08T23:14:29.728Z,17.80
2018-03-08T23:16:57.494Z,17.80
2018-03-08T23:19:25.287Z,17.80
2018-03-08T23:21:53.027Z,17.80
2018-03-08T23:24:20.874Z,17.80
2018-03-08T23:26:48.645Z,17.70
2018-03-08T23:29:16.394Z,17.70
2018-03-08T23:31:44.223Z,17.70
2018-03-08T23:34:12.027Z,17.60
2018-03-08T23:36:39.781Z,17.60
2018-03-08T23:39:07.507Z,17.60
2018-03-08T23:41:35.379Z,17.60
2018-03-08T23:44:03.146Z,17.60
2018-03-08T23:46:30.896Z,17.50
2018-03-08T23:48:59.446Z,17.40
2018-03-08T23:51:27.215Z,17.40
2018-03-08T23:53:55.030Z,17.40
2018-03-08T23:56:22.779Z,17.50
2018-03-08T23:58:50.546Z,17.40
